Milford, Connecticut
Current Conditions -  °F | °C
As of 7:52 PM on Wednesday 26 Nov 2014 (Local Time) from KBDR Reporting Station
Light Snow Light Snow  
Wind Chill: 27°   Ceiling: 1500
Heat Index: 37°   Visibility: 3mi
Dew Point: 34°   Wind: 17mph
Humidity: 89%   Direction: 350°N
Pressure: 29.74"   Gusts: 28mph
Location:  41.23°N, 73.06°W
Report Text: KBDR 270052Z 35015G24KT 3SM -SN BR BKN015 OVC025 03/01 A2974 RMK AO2 VIS 2 R29 SE UPB21E28SNE21B22E27B28 SLP070 P0003 T00280011
Loading
Personal Weather Stations






























Interactive Weather Map New forecast layout! Learn more

10-Day Weather Forecast

Advertisements
Track Severe Weather on mobile